Flight Track Log - Related Links

Times and Time Zones

All times are in EDT time to prevent confusion due to time zone crossing. See the FEX300 flight status page for this flight to view local times or setup timezone preferences in your user account.

Time Position Orientation Groundspeed Altitude Reporting Facility
EDT Latitude Longitude Course Direction KTS MPH feet Rate Location/Type
Sun 10:41:17 AM 43.1667 -79.9000 36° Northeast 70 81 700  Level Toronto Center
Sun 10:42:17 AM 43.1333 -79.9500 228° Southwest 150 173 2,500 1,450 Climbing Toronto Center
Sun 10:43:17 AM 43.1000 -79.9833 216° Southwest 170 196 3,600 1,250 Climbing Toronto Center
Sun 10:44:17 AM 43.1000 -79.9333 90° East 150 173 5,000 700 Climbing Toronto Center
Sun 10:45:17 AM 43.1333 -79.8833 48° Northeast 200 230 5,000  Level Toronto Center
Sun 10:46:00 AM 43.4653 -79.6847 36° Northeast  Level FlightAware Approximate
Sun 10:46:17 AM 43.1667 -79.8167 56° Northeast 210 242 5,000  Level Toronto Center
Sun 10:47:17 AM 43.2000 -79.7500 56° Northeast 220 253 5,000 -50 Level Toronto Center
Sun 10:48:17 AM 43.2333 -79.6833 56° Northeast 230 265 4,900 -550 Descending Toronto Center
Sun 10:49:17 AM 43.2833 -79.6167 44° Northeast 240 276 3,900 -500 Descending Toronto Center
Sun 10:50:17 AM 43.3167 -79.5333 61° Northeast 220 253 3,900 50 Level Toronto Center
Sun 10:51:17 AM 43.3500 -79.4667 55° Northeast 210 242 4,000  Climbing Toronto Center
Sun 10:52:17 AM 43.3833 -79.4000 55° Northeast 220 253 3,900  Descending Toronto Center
Sun 10:53:17 AM 43.4167 -79.3333 55° Northeast 210 242 4,000 50 Climbing Toronto Center
Sun 10:54:17 AM 43.4500 -79.2667 55° Northeast 210 242 4,000  Level Toronto Center
Sun 10:55:17 AM 43.4833 -79.2000 55° Northeast 210 242 4,000 50 Level Toronto Center
Sun 10:56:17 AM 43.5333 -79.1333 44° Northeast 210 242 4,100 -100 Climbing Toronto Center
Sun 10:57:17 AM 43.5667 -79.0833 47° Northeast 220 253 3,800 -600 Descending Toronto Center
Sun 10:58:17 AM 43.6333 -79.0833 360° North 230 265 2,900 -400 Descending Toronto Center
Sun 10:59:17 AM 43.6833 -79.1500 316° Northwest 230 265 3,000 50 Climbing Toronto Center
Sun 11:00:17 AM 43.7167 -79.2000 313° West 230 265 3,000 -300 Level Toronto Center
Sun 11:01:17 AM 43.7667 -79.2333 334° Northwest 200 230 2,400 -550 Descending Toronto Center
Sun 11:02:17 AM 43.8000 -79.2833 313° West 170 196 1,900 -600 Descending Toronto Center
Sun 11:03:17 AM 43.8167 -79.3333 295° West 140 161 1,200 -550 Descending Toronto Center
Sun 11:04:17 AM 43.8500 -79.3500 340° North 130 150 800 -400 Descending Toronto Center

Login

Don't have an account? Register now (free) for customized features, flight alerts, and more!